createdAt,value
2022-10-25T00:01:03.314Z,3.22
2022-10-25T00:03:38.935Z,3.22
2022-10-25T00:06:12.286Z,4.53
2022-10-25T00:08:45.077Z,5.05
2022-10-25T00:11:21.918Z,3.40
2022-10-25T00:13:55.693Z,2.88
2022-10-25T00:16:30.044Z,4.60
2022-10-25T00:19:03.268Z,6.97
2022-10-25T00:21:35.781Z,3.95
2022-10-25T00:24:10.542Z,6.80
2022-10-25T00:26:42.999Z,5.55
2022-10-25T00:29:17.212Z,8.02
2022-10-25T00:31:49.662Z,7.50
2022-10-25T00:34:22.404Z,6.68
2022-10-25T00:36:54.959Z,5.88
2022-10-25T00:39:27.815Z,6.63
2022-10-25T00:42:01.495Z,2.88
2022-10-25T00:44:34.582Z,2.30
2022-10-25T00:47:15.002Z,3.50
2022-10-25T00:49:56.869Z,5.85
2022-10-25T00:52:30.111Z,3.78
2022-10-25T00:55:03.585Z,2.08
2022-10-25T00:57:41.051Z,3.67
2022-10-25T01:00:14.175Z,2.97
2022-10-25T01:02:46.988Z,3.13
2022-10-25T01:05:20.204Z,2.60
2022-10-25T01:07:52.884Z,2.85
2022-10-25T01:10:26.185Z,3.10
2022-10-25T01:13:00.501Z,6.88
2022-10-25T01:15:41.594Z,8.65
2022-10-25T01:18:43.884Z,7.53
2022-10-25T01:21:19.628Z,5.20
2022-10-25T01:24:05.716Z,4.10
2022-10-25T01:26:38.614Z,4.85
2022-10-25T01:29:30.002Z,2.75
2022-10-25T01:32:09.645Z,3.88
2022-10-25T01:34:46.073Z,3.15
2022-10-25T01:37:24.942Z,8.63
2022-10-25T01:39:57.365Z,3.13
2022-10-25T01:42:43.683Z,5.45
2022-10-25T01:45:20.205Z,5.28
2022-10-25T01:48:13.214Z,5.65
2022-10-25T01:50:46.868Z,2.63
2022-10-25T01:53:19.696Z,4.28
2022-10-25T01:55:56.780Z,3.63
2022-10-25T01:58:32.701Z,5.70
2022-10-25T02:01:11.920Z,4.32
2022-10-25T02:03:51.304Z,5.28
2022-10-25T02:06:32.655Z,5.03
2022-10-25T02:09:28.427Z,5.28
2022-10-25T02:12:02.106Z,5.40
2022-10-25T02:14:42.757Z,5.05
2022-10-25T02:17:18.107Z,3.53
2022-10-25T02:19:52.849Z,3.28
2022-10-25T02:22:27.646Z,3.78
2022-10-25T02:25:01.510Z,6.88
2022-10-25T02:27:35.457Z,7.18
2022-10-25T02:30:08.713Z,4.22
2022-10-25T02:32:41.608Z,3.60
2022-10-25T02:35:15.950Z,12.63
2022-10-25T02:37:49.466Z,3.33
2022-10-25T02:40:24.834Z,2.88
2022-10-25T02:42:57.325Z,3.25
2022-10-25T02:45:30.280Z,2.95
2022-10-25T02:48:02.756Z,3.35
2022-10-25T02:50:35.694Z,10.82
2022-10-25T02:53:08.311Z,4.80
2022-10-25T02:55:41.409Z,4.40
2022-10-25T02:58:13.834Z,3.20
2022-10-25T03:00:46.783Z,5.75
2022-10-25T03:03:19.199Z,2.90
2022-10-25T03:05:52.188Z,4.40
2022-10-25T03:08:24.819Z,4.45
2022-10-25T03:10:57.656Z,2.78
2022-10-25T03:13:30.314Z,4.07
2022-10-25T03:16:03.080Z,3.90
2022-10-25T03:18:35.568Z,2.53
2022-10-25T03:21:08.674Z,2.70
2022-10-25T03:23:41.341Z,2.90
2022-10-25T03:26:14.365Z,2.92
2022-10-25T03:28:47.163Z,2.97
2022-10-25T03:31:20.998Z,7.88
2022-10-25T03:33:53.818Z,2.35
2022-10-25T03:36:26.729Z,2.33
2022-10-25T03:38:59.536Z,5.03
2022-10-25T03:41:32.617Z,2.67
2022-10-25T03:44:05.339Z,7.10
2022-10-25T03:46:38.442Z,4.65
2022-10-25T03:49:10.991Z,3.95
2022-10-25T03:51:43.722Z,3.63
2022-10-25T03:54:16.217Z,5.68
2022-10-25T03:56:49.015Z,7.20
2022-10-25T03:59:21.406Z,3.88
2022-10-25T04:01:54.402Z,2.83
2022-10-25T04:04:26.981Z,3.60
2022-10-25T06:18:48.404Z,2.85
2022-10-25T06:21:22.922Z,3.15
2022-10-25T06:23:55.898Z,4.22
2022-10-25T06:26:29.912Z,10.93
2022-10-25T06:29:04.281Z,11.18
2022-10-25T06:31:37.756Z,5.13
2022-10-25T06:34:10.360Z,5.35
2022-10-25T06:36:43.169Z,5.95
2022-10-25T06:39:15.712Z,12.98
2022-10-25T06:41:48.463Z,8.95
2022-10-25T06:44:21.584Z,2.00
2022-10-25T06:49:47.139Z,3.35
2022-10-25T06:52:20.594Z,3.90
2022-10-25T06:54:53.179Z,5.13
2022-10-25T06:57:26.033Z,7.45
2022-10-25T06:59:58.566Z,11.45
2022-10-25T07:02:31.457Z,5.75
2022-10-25T07:05:04.088Z,6.05
2022-10-25T07:07:36.953Z,5.88
2022-10-25T07:10:09.582Z,3.28
2022-10-25T07:12:42.585Z,4.20
2022-10-25T07:15:15.161Z,6.45
2022-10-25T07:17:48.236Z,3.75
2022-10-25T07:20:20.909Z,10.45
2022-10-25T07:22:57.778Z,7.35
2022-10-25T07:25:32.853Z,6.53
2022-10-25T07:28:05.597Z,3.72
2022-10-25T07:30:38.085Z,4.03
2022-10-25T07:33:11.254Z,7.25
2022-10-25T07:35:58.935Z,3.60
2022-10-25T07:38:40.469Z,6.15
2022-10-25T07:41:13.037Z,3.72
2022-10-25T07:43:46.029Z,5.45
2022-10-25T07:46:18.918Z,5.72
2022-10-25T07:48:52.908Z,11.57
2022-10-25T07:51:25.453Z,3.97
2022-10-25T07:53:58.252Z,5.47
2022-10-25T07:56:30.881Z,5.85
2022-10-25T07:59:03.692Z,10.90
2022-10-25T08:01:37.062Z,3.13
2022-10-25T08:04:09.904Z,2.08
2022-10-25T08:06:42.423Z,3.22
2022-10-25T08:09:36.955Z,2.50
2022-10-25T08:12:08.112Z,2.40
2022-10-25T08:14:42.489Z,1.88
2022-10-25T08:17:18.344Z,4.97
2022-10-25T08:19:51.499Z,7.53
2022-10-25T08:22:24.507Z,2.95
2022-10-25T08:24:57.372Z,8.95
2022-10-25T08:27:29.933Z,5.68
2022-10-25T08:30:02.740Z,2.75
2022-10-25T08:32:38.230Z,1.98
2022-10-25T08:35:11.318Z,7.63
2022-10-25T08:37:44.458Z,2.13
2022-10-25T08:40:22.126Z,3.30
2022-10-25T08:43:03.498Z,2.13
2022-10-25T08:45:36.367Z,6.80
2022-10-25T08:48:15.418Z,4.60
2022-10-25T08:50:51.106Z,3.05
2022-10-25T08:53:27.687Z,2.78
2022-10-25T08:56:17.647Z,1.75
2022-10-25T08:58:54.401Z,2.80
2022-10-25T09:01:36.181Z,4.28
2022-10-25T09:04:09.357Z,5.47
2022-10-25T09:06:59.765Z,2.42
2022-10-25T09:09:47.273Z,2.33
2022-10-25T09:12:26.127Z,2.25
2022-10-25T09:15:07.648Z,1.95
2022-10-25T09:20:16.057Z,1.40
2022-10-25T09:22:50.954Z,2.33
2022-10-25T09:25:26.910Z,3.15
2022-10-25T09:28:00.456Z,3.30
2022-10-25T09:30:38.110Z,3.20
2022-10-25T09:33:12.438Z,4.50
2022-10-25T09:35:47.280Z,2.88
2022-10-25T09:38:25.762Z,2.38
2022-10-25T09:41:05.789Z,1.80
2022-10-25T09:43:46.407Z,3.13
2022-10-25T09:46:28.506Z,1.63
2022-10-25T09:49:13.173Z,1.92
2022-10-25T09:51:45.715Z,3.95
2022-10-25T09:54:22.654Z,4.55
2022-10-25T09:56:55.168Z,4.55
2022-10-25T09:59:28.531Z,1.58
2022-10-25T10:02:01.212Z,2.50
2022-10-25T10:04:35.521Z,3.88
2022-10-25T10:07:14.732Z,1.95
2022-10-25T10:09:49.037Z,4.72
2022-10-25T10:12:29.198Z,2.50
2022-10-25T10:15:05.206Z,2.42
2022-10-25T10:17:40.036Z,3.05
2022-10-25T10:20:17.925Z,3.83
2022-10-25T10:22:54.068Z,5.70
2022-10-25T10:25:28.924Z,2.88
2022-10-25T10:28:01.669Z,2.53
2022-10-25T10:30:39.155Z,4.40
2022-10-25T10:33:16.485Z,2.40
2022-10-25T10:35:53.416Z,3.47
2022-10-25T10:38:27.559Z,2.33
2022-10-25T10:41:14.872Z,1.90
2022-10-25T10:43:47.385Z,3.50
2022-10-25T10:46:21.579Z,2.80
2022-10-25T10:48:55.433Z,1.50
2022-10-25T10:51:45.937Z,2.75
2022-10-25T10:54:29.383Z,2.40
2022-10-25T10:57:03.580Z,3.50
2022-10-25T10:59:41.115Z,2.55
2022-10-25T11:02:50.097Z,2.10
2022-10-25T11:05:26.800Z,2.28
2022-10-25T11:07:59.651Z,3.22
2022-10-25T11:10:36.180Z,2.38
2022-10-25T11:13:11.839Z,1.75
2022-10-25T11:16:02.896Z,7.97
2022-10-25T11:18:47.618Z,1.80
2022-10-25T11:21:38.761Z,2.20
2022-10-25T11:24:20.990Z,4.72
2022-10-25T11:27:13.702Z,3.80
2022-10-25T11:30:05.460Z,2.05
2022-10-25T11:33:05.532Z,2.00
2022-10-25T11:35:44.434Z,2.13
2022-10-25T11:38:25.860Z,3.05
2022-10-25T11:41:01.426Z,2.17
2022-10-25T11:43:39.805Z,3.38
2022-10-25T11:46:15.731Z,4.25
2022-10-25T11:49:01.389Z,2.70
2022-10-25T11:51:37.224Z,2.83
2022-10-25T11:54:14.364Z,5.00
2022-10-25T11:56:47.202Z,1.55
2022-10-25T11:59:34.743Z,3.92
2022-10-25T12:02:21.265Z,2.00
2022-10-25T12:04:56.735Z,1.60
2022-10-25T12:07:48.112Z,4.53
2022-10-25T12:10:43.850Z,1.85
2022-10-25T12:13:16.884Z,3.35
2022-10-25T12:15:51.276Z,2.25
2022-10-25T12:18:31.597Z,4.18
2022-10-25T12:21:04.748Z,3.15
2022-10-25T12:23:49.212Z,4.05
2022-10-25T12:26:26.825Z,3.30
2022-10-25T12:29:05.284Z,2.40
2022-10-25T12:31:42.786Z,4.65
2022-10-25T12:34:26.751Z,1.98
2022-10-25T12:37:07.877Z,3.25
2022-10-25T12:39:44.791Z,2.25
2022-10-25T12:42:17.226Z,4.93
2022-10-25T12:44:53.216Z,2.70
2022-10-25T12:47:28.754Z,2.40
2022-10-25T12:50:27.847Z,1.73
2022-10-25T12:53:00.440Z,4.28
2022-10-25T12:55:33.998Z,4.07
2022-10-25T12:58:32.889Z,4.07
2022-10-25T13:01:21.031Z,2.13
2022-10-25T13:04:00.115Z,5.47
2022-10-25T13:06:37.196Z,3.40
2022-10-25T13:09:11.031Z,3.28
2022-10-25T13:11:48.316Z,2.20
2022-10-25T13:14:20.946Z,2.50
2022-10-25T13:17:13.712Z,2.83
2022-10-25T13:19:55.822Z,1.55
2022-10-25T13:22:35.762Z,2.28
2022-10-25T13:25:13.629Z,1.67
2022-10-25T13:28:06.156Z,3.22
2022-10-25T13:30:38.888Z,6.20
2022-10-25T13:33:28.036Z,4.00
2022-10-25T13:36:01.597Z,4.57
2022-10-25T13:38:39.429Z,2.95
2022-10-25T13:41:14.056Z,2.75
2022-10-25T13:44:01.067Z,1.67
2022-10-25T13:46:36.427Z,5.13
2022-10-25T13:49:35.728Z,3.35
2022-10-25T13:52:21.564Z,3.17
2022-10-25T13:54:55.885Z,1.88
2022-10-25T13:57:48.716Z,4.00
2022-10-25T14:00:24.362Z,4.03
2022-10-25T14:03:03.263Z,3.25
2022-10-25T14:05:54.854Z,3.08
2022-10-25T14:08:31.447Z,3.72
2022-10-25T14:11:10.219Z,2.45
2022-10-25T14:13:50.772Z,3.30
2022-10-25T14:16:31.511Z,3.15
2022-10-25T14:19:12.293Z,3.33
2022-10-25T14:21:50.008Z,3.40
2022-10-25T14:24:22.917Z,2.75
2022-10-25T14:26:57.430Z,3.80
2022-10-25T14:29:30.151Z,3.65
2022-10-25T14:32:12.331Z,3.17
2022-10-25T14:37:17.608Z,1.98
2022-10-25T14:39:53.820Z,4.13
2022-10-25T14:42:26.666Z,5.22
2022-10-25T14:44:59.170Z,7.35
2022-10-25T14:47:33.113Z,7.10
2022-10-25T14:53:01.165Z,6.32
2022-10-25T14:55:35.246Z,7.75
2022-10-25T14:58:11.588Z,4.63
2022-10-25T15:00:54.758Z,3.70
2022-10-25T15:03:28.656Z,2.75
2022-10-25T15:06:01.289Z,5.65
2022-10-25T15:09:09.155Z,2.75
2022-10-25T15:12:14.273Z,5.38
2022-10-25T15:14:48.569Z,3.88
2022-10-25T15:17:30.904Z,3.05
2022-10-25T15:20:26.579Z,3.45
2022-10-25T15:23:03.960Z,3.28
2022-10-25T15:25:38.932Z,6.78
2022-10-25T15:28:12.811Z,2.92
2022-10-25T15:30:58.958Z,2.97
2022-10-25T15:33:33.293Z,6.85
2022-10-25T15:36:06.499Z,8.32
2022-10-25T15:41:31.825Z,5.50
2022-10-25T15:44:05.366Z,2.15
2022-10-25T15:46:38.480Z,4.50
2022-10-25T15:49:12.569Z,3.15
2022-10-25T15:51:45.985Z,3.75
2022-10-25T15:54:20.041Z,7.00
2022-10-25T15:56:54.417Z,7.47
2022-10-25T15:59:26.930Z,1.88
2022-10-25T16:01:59.845Z,7.88
2022-10-25T16:04:32.419Z,5.18
2022-10-25T16:07:05.314Z,6.65
2022-10-25T16:09:37.877Z,7.60
2022-10-25T16:12:17.346Z,6.75
2022-10-25T16:14:51.157Z,6.55
2022-10-25T16:17:24.286Z,6.95
2022-10-25T16:19:56.900Z,5.30
2022-10-25T16:22:29.823Z,5.60
2022-10-25T16:25:03.359Z,4.60
2022-10-25T16:27:36.144Z,3.13
2022-10-25T16:30:30.666Z,7.20
2022-10-25T16:33:03.509Z,4.55
2022-10-25T16:35:36.294Z,7.55
2022-10-25T16:40:42.996Z,9.07
2022-10-25T16:43:16.210Z,6.22
2022-10-25T16:45:48.774Z,14.13
2022-10-25T16:48:23.627Z,11.48
2022-10-25T16:50:56.160Z,11.20
2022-10-25T16:53:29.017Z,10.68
2022-10-25T16:56:01.723Z,19.10
2022-10-25T16:58:34.954Z,16.73
2022-10-25T17:01:26.135Z,10.05
2022-10-25T17:03:59.208Z,12.20
2022-10-25T17:06:47.761Z,16.30
2022-10-25T17:09:20.695Z,13.00
2022-10-25T17:11:53.148Z,19.65
2022-10-25T17:14:26.172Z,15.88
2022-10-25T17:17:02.330Z,16.50
2022-10-25T17:19:36.909Z,13.65
2022-10-25T17:22:09.498Z,13.27
2022-10-25T17:24:42.660Z,9.73
2022-10-25T17:27:15.291Z,12.15
2022-10-25T17:29:48.309Z,9.52
2022-10-25T17:32:20.770Z,6.90
2022-10-25T17:34:54.108Z,14.13
2022-10-25T17:37:26.652Z,19.83
2022-10-25T17:39:59.502Z,25.92
2022-10-25T17:42:31.942Z,37.13
2022-10-25T17:45:05.335Z,39.20
2022-10-25T17:47:42.727Z,41.10
2022-10-25T17:50:20.482Z,35.17
2022-10-25T17:52:53.365Z,46.00
2022-10-25T17:55:32.276Z,35.13
2022-10-25T17:58:06.489Z,21.27
2022-10-25T18:00:39.314Z,22.77
2022-10-25T18:03:11.905Z,20.38
2022-10-25T18:05:45.149Z,19.10
2022-10-25T18:08:17.694Z,18.27
2022-10-25T18:10:50.522Z,17.13
2022-10-25T18:13:25.096Z,21.67
2022-10-25T18:16:00.994Z,28.10
2022-10-25T18:18:33.582Z,24.90
2022-10-25T18:21:11.130Z,19.58
2022-10-25T18:23:43.961Z,74.85
2022-10-25T18:26:17.975Z,69.60
2022-10-25T18:28:50.619Z,63.03
2022-10-25T18:31:27.482Z,36.20
2022-10-25T18:34:03.746Z,26.70
2022-10-25T18:36:36.668Z,23.60
2022-10-25T18:39:09.181Z,22.83
2022-10-25T18:41:42.878Z,31.60
2022-10-25T18:44:16.591Z,31.45
2022-10-25T18:46:49.509Z,27.85
2022-10-25T18:49:21.971Z,44.72
2022-10-25T18:51:54.759Z,52.55
2022-10-25T18:54:27.235Z,62.33
2022-10-25T18:57:00.117Z,51.45
2022-10-25T18:59:32.666Z,48.28
2022-10-25T19:02:05.737Z,40.47
2022-10-25T19:04:38.328Z,40.22
2022-10-25T19:07:12.418Z,35.55
2022-10-25T19:09:45.495Z,33.38
2022-10-25T19:12:18.341Z,23.27
2022-10-25T19:14:50.831Z,17.33
2022-10-25T19:17:23.585Z,11.77
2022-10-25T19:19:56.123Z,11.18
2022-10-25T19:22:28.842Z,13.93
2022-10-25T19:25:01.797Z,12.80
2022-10-25T19:27:34.737Z,16.85
2022-10-25T19:30:07.932Z,18.13
2022-10-25T19:37:48.410Z,22.00
2022-10-25T19:40:21.106Z,19.63
2022-10-25T19:42:53.933Z,15.10
2022-10-25T19:45:27.832Z,16.20
2022-10-25T19:48:00.573Z,12.45
2022-10-25T19:50:34.347Z,14.85
2022-10-25T19:53:07.135Z,13.52
2022-10-25T19:55:39.687Z,7.85
2022-10-25T19:58:12.770Z,16.13
2022-10-25T20:00:45.325Z,8.60
2022-10-25T20:03:18.090Z,9.10
2022-10-25T20:05:56.515Z,10.48
2022-10-25T20:08:32.275Z,9.88
2022-10-25T20:11:05.184Z,12.25
2022-10-25T20:13:38.322Z,7.20
2022-10-25T20:16:11.046Z,9.27
2022-10-25T20:18:43.868Z,7.63
2022-10-25T20:21:19.016Z,6.25
2022-10-25T20:23:56.261Z,11.73
2022-10-25T20:26:30.318Z,12.85
2022-10-25T20:29:04.562Z,6.43
2022-10-25T20:31:37.110Z,9.57
2022-10-25T20:34:09.998Z,7.80
2022-10-25T20:36:44.056Z,10.30
2022-10-25T20:39:16.991Z,5.85
2022-10-25T20:41:49.869Z,6.95
2022-10-25T20:44:22.704Z,7.05
2022-10-25T20:46:55.250Z,14.00
2022-10-25T20:49:28.012Z,7.15
2022-10-25T20:52:00.903Z,7.28
2022-10-25T20:54:33.812Z,4.80
2022-10-25T20:57:06.309Z,4.82
2022-10-25T20:59:39.157Z,7.10
2022-10-25T21:02:11.767Z,5.63
2022-10-25T21:04:53.439Z,7.78
2022-10-25T21:09:59.732Z,6.30
2022-10-25T21:12:33.501Z,8.07
2022-10-25T21:15:09.547Z,4.68
2022-10-25T21:17:48.919Z,7.20
2022-10-25T21:20:22.189Z,4.07
2022-10-25T21:22:57.700Z,6.95
2022-10-25T21:25:30.571Z,6.30
2022-10-25T21:28:03.547Z,9.82
2022-10-25T21:30:37.482Z,6.53
2022-10-25T21:33:10.028Z,6.25
2022-10-25T21:35:42.992Z,5.03
2022-10-25T21:38:15.519Z,4.50
2022-10-25T21:40:48.423Z,2.97
2022-10-25T21:43:21.345Z,8.98
2022-10-25T21:45:59.158Z,3.78
2022-10-25T21:48:31.746Z,6.20
2022-10-25T21:51:04.871Z,4.55
2022-10-25T21:53:37.461Z,6.43
2022-10-25T21:56:13.281Z,7.18
2022-10-25T21:58:46.636Z,5.65
2022-10-25T22:01:21.645Z,5.18
2022-10-25T22:03:54.560Z,3.63
2022-10-25T22:06:28.849Z,5.18
2022-10-25T22:09:01.719Z,6.35
2022-10-25T22:11:36.447Z,5.50
2022-10-25T22:14:11.227Z,7.43
2022-10-25T22:16:44.093Z,8.18
2022-10-25T22:19:17.794Z,12.40
2022-10-25T22:21:51.124Z,16.13
2022-10-25T22:24:23.688Z,11.88
2022-10-25T22:26:56.626Z,10.55
2022-10-25T22:29:29.286Z,7.57
2022-10-25T22:32:02.074Z,5.60
2022-10-25T22:34:34.587Z,7.20
2022-10-25T22:37:07.690Z,8.52
2022-10-25T22:39:40.369Z,4.05
2022-10-25T22:42:14.135Z,7.00
2022-10-25T22:44:47.544Z,4.07
2022-10-25T22:47:20.433Z,7.60
2022-10-25T22:49:52.927Z,6.07
2022-10-25T22:52:25.831Z,3.78
2022-10-25T22:54:59.367Z,7.35
2022-10-25T22:57:32.350Z,4.70
2022-10-25T23:00:05.205Z,5.18
2022-10-25T23:02:38.494Z,3.45
2022-10-25T23:05:11.135Z,9.02
2022-10-25T23:07:45.535Z,3.05
2022-10-25T23:10:19.121Z,4.38
2022-10-25T23:12:51.925Z,7.97
2022-10-25T23:15:24.539Z,5.93
2022-10-25T23:17:59.436Z,6.40
2022-10-25T23:20:33.757Z,3.50
2022-10-25T23:23:06.527Z,2.67
2022-10-25T23:25:39.784Z,6.55
2022-10-25T23:28:12.984Z,8.20
2022-10-25T23:30:45.452Z,4.90
2022-10-25T23:33:18.287Z,2.75
2022-10-25T23:35:51.063Z,3.88
2022-10-25T23:38:23.969Z,8.73
2022-10-25T23:40:56.620Z,4.43
2022-10-25T23:43:30.202Z,3.60
2022-10-25T23:46:03.171Z,4.03
2022-10-25T23:48:36.054Z,3.80
2022-10-25T23:51:10.581Z,4.20
2022-10-25T23:53:43.604Z,5.03
2022-10-25T23:56:16.286Z,6.07
2022-10-25T23:58:53.984Z,6.07
